createdAt,value
2022-10-23T04:51:41.688Z,4.67
2022-10-23T04:54:09.720Z,4.80
2022-10-23T04:56:36.554Z,5.63
2022-10-23T04:59:07.039Z,5.73
2022-10-23T05:01:34.041Z,5.13
2022-10-23T05:04:00.926Z,5.13
2022-10-23T05:06:27.733Z,6.03
2022-10-23T05:08:54.575Z,6.27
2022-10-23T05:11:21.443Z,5.87
2022-10-23T05:13:48.320Z,6.30
2022-10-23T05:16:43.711Z,2.70
2022-10-23T05:19:13.880Z,4.70
2022-10-23T05:21:40.993Z,6.63
2022-10-23T05:24:08.057Z,6.23
2022-10-23T05:26:34.900Z,4.73
2022-10-23T05:29:01.775Z,7.93
2022-10-23T05:31:28.721Z,2.97
2022-10-23T05:33:56.100Z,6.30
2022-10-23T05:36:24.345Z,2.93
2022-10-23T05:38:51.261Z,4.70
2022-10-23T05:41:18.258Z,4.20
2022-10-23T05:43:46.363Z,2.77
2022-10-23T05:46:13.248Z,13.00
2022-10-23T05:48:40.207Z,7.50
2022-10-23T05:51:08.722Z,5.17
2022-10-23T05:53:38.709Z,3.07
2022-10-23T05:56:09.092Z,2.67
2022-10-23T05:58:35.939Z,3.80
2022-10-23T06:01:07.313Z,7.83
2022-10-23T06:03:34.898Z,5.97
2022-10-23T06:06:01.865Z,4.93
2022-10-23T06:08:28.659Z,7.70
2022-10-23T06:10:55.496Z,6.10
2022-10-23T06:13:22.338Z,5.67
2022-10-23T06:15:49.344Z,2.50
2022-10-23T06:18:16.156Z,4.83
2022-10-23T06:20:42.990Z,3.87
2022-10-23T06:23:09.847Z,4.73
2022-10-23T06:25:36.728Z,5.63
2022-10-23T06:28:03.521Z,7.20
2022-10-23T06:30:30.408Z,8.33
2022-10-23T06:32:57.210Z,8.30
2022-10-23T06:35:24.029Z,9.47
2022-10-23T06:37:50.904Z,13.83
2022-10-23T06:40:17.776Z,7.63
2022-10-23T06:42:44.814Z,11.73
2022-10-23T06:45:11.943Z,11.53
2022-10-23T06:47:38.725Z,9.03
2022-10-23T06:50:05.800Z,8.17
2022-10-23T06:52:46.507Z,7.60
2022-10-23T06:55:14.202Z,11.57
2022-10-23T06:57:41.299Z,7.10
2022-10-23T07:00:08.992Z,11.40
2022-10-23T07:02:35.995Z,7.70
2022-10-23T07:05:02.859Z,4.77
2022-10-23T07:07:30.367Z,7.37
2022-10-23T07:09:57.505Z,3.97
2022-10-23T07:12:24.504Z,9.10
2022-10-23T07:14:51.301Z,5.60
2022-10-23T07:17:18.137Z,6.30
2022-10-23T07:19:44.916Z,4.87
2022-10-23T07:22:14.901Z,7.70
2022-10-23T07:24:42.863Z,4.80
2022-10-23T07:27:10.574Z,7.47
2022-10-23T07:29:37.544Z,9.40
2022-10-23T07:32:04.956Z,9.97
2022-10-23T07:34:32.261Z,5.20
2022-10-23T07:36:59.082Z,3.43
2022-10-23T07:39:26.092Z,5.37
2022-10-23T07:41:52.922Z,7.57
2022-10-23T07:44:21.101Z,7.47
2022-10-23T07:46:49.984Z,7.53
2022-10-23T07:49:17.023Z,4.23
2022-10-23T07:51:47.496Z,5.70
2022-10-23T07:54:17.274Z,6.00
2022-10-23T07:56:44.080Z,6.33
2022-10-23T07:59:13.077Z,4.87
2022-10-23T08:01:40.502Z,6.40
2022-10-23T08:04:07.549Z,6.87
2022-10-23T08:06:35.547Z,5.27
2022-10-23T08:09:06.197Z,4.40
2022-10-23T08:11:35.917Z,8.30
2022-10-23T08:14:04.809Z,5.70
2022-10-23T08:16:32.961Z,7.50
2022-10-23T08:18:59.787Z,6.33
2022-10-23T08:21:26.989Z,10.67
2022-10-23T08:23:55.277Z,6.93
2022-10-23T08:26:22.786Z,10.70
2022-10-23T08:28:49.589Z,8.60
2022-10-23T08:31:18.177Z,9.40
2022-10-23T08:33:45.462Z,6.63
2022-10-23T08:36:28.722Z,6.80
2022-10-23T08:38:57.219Z,14.53
2022-10-23T08:41:32.041Z,7.67
2022-10-23T08:44:03.601Z,7.90
2022-10-23T08:46:34.659Z,8.80
2022-10-23T08:49:47.691Z,6.50
2022-10-23T08:52:48.215Z,11.87
2022-10-23T08:55:24.233Z,11.07
2022-10-23T08:58:03.784Z,8.47
2022-10-23T09:00:31.330Z,10.97
2022-10-23T09:03:02.044Z,8.90
2022-10-23T09:05:40.074Z,7.80
2022-10-23T09:08:46.360Z,8.00
2022-10-23T09:11:30.628Z,8.87
2022-10-23T09:14:32.625Z,9.20
2022-10-23T09:17:23.587Z,5.87
2022-10-23T09:19:56.208Z,7.57
2022-10-23T09:22:23.048Z,11.47
2022-10-23T09:24:53.733Z,12.30
2022-10-23T09:27:21.132Z,11.10
2022-10-23T09:29:50.798Z,8.00
2022-10-23T09:32:18.675Z,9.80
2022-10-23T09:34:54.415Z,10.73
2022-10-23T09:37:24.599Z,10.27
2022-10-23T09:40:15.087Z,11.17
2022-10-23T09:42:55.191Z,7.90
2022-10-23T09:45:32.053Z,4.03
2022-10-23T09:48:15.259Z,7.73
2022-10-23T09:50:57.606Z,5.67
2022-10-23T09:53:47.240Z,9.17
2022-10-23T09:56:41.143Z,8.90
2022-10-23T09:59:14.339Z,5.67
2022-10-23T10:01:48.587Z,8.30
2022-10-23T10:04:15.727Z,8.80
2022-10-23T10:06:43.202Z,11.93
2022-10-23T10:09:15.153Z,6.63
2022-10-23T10:11:59.150Z,7.33
2022-10-23T10:14:50.654Z,7.00
2022-10-23T10:17:20.312Z,10.97
2022-10-23T10:20:08.833Z,9.00
2022-10-23T10:22:54.424Z,10.27
2022-10-23T10:25:33.451Z,11.20
2022-10-23T10:28:22.573Z,7.73
2022-10-23T10:31:16.909Z,18.57
2022-10-23T10:33:49.745Z,10.93
2022-10-23T10:36:41.004Z,8.13
2022-10-23T10:39:16.886Z,9.73
2022-10-23T10:42:14.592Z,19.90
2022-10-23T10:45:05.987Z,45.23
2022-10-23T10:47:34.241Z,16.10
2022-10-23T10:50:01.016Z,8.37
2022-10-23T10:52:48.275Z,9.17
2022-10-23T10:55:18.461Z,10.20
2022-10-23T10:57:59.284Z,9.03
2022-10-23T11:00:29.284Z,6.20
2022-10-23T11:03:00.993Z,7.63
2022-10-23T11:05:35.311Z,4.40
2022-10-23T11:08:49.795Z,3.70
2022-10-23T11:11:36.497Z,2.37
2022-10-23T11:14:03.926Z,5.30
2022-10-23T11:16:34.786Z,4.83
2022-10-23T11:19:23.375Z,3.57
2022-10-23T11:22:16.142Z,4.20
2022-10-23T11:24:58.221Z,2.47
2022-10-23T11:27:46.472Z,3.37
2022-10-23T11:30:37.160Z,4.07
2022-10-23T11:33:09.755Z,5.17
2022-10-23T11:35:44.174Z,8.30
2022-10-23T11:38:14.032Z,8.10
2022-10-23T11:43:37.137Z,6.93
2022-10-23T11:46:30.888Z,10.33
2022-10-23T11:48:57.870Z,9.73
2022-10-23T11:51:31.221Z,7.93
2022-10-23T11:54:24.820Z,10.63
2022-10-23T11:57:15.426Z,13.30
2022-10-23T11:59:47.918Z,15.30
2022-10-23T12:02:37.692Z,13.53
2022-10-23T12:05:31.041Z,12.00
2022-10-23T12:08:02.550Z,12.13
2022-10-23T12:10:36.789Z,15.63
2022-10-23T12:13:29.130Z,15.20
2022-10-23T12:15:59.961Z,12.87
2022-10-23T12:18:28.099Z,18.33
2022-10-23T12:20:59.475Z,16.10
2022-10-23T12:23:32.047Z,18.53
2022-10-23T12:26:16.855Z,16.57
2022-10-23T12:28:49.829Z,16.30
2022-10-23T12:31:38.221Z,22.33
2022-10-23T12:50:22.949Z,16.30
2022-10-23T12:52:57.905Z,16.20
2022-10-23T12:55:28.042Z,15.37
2022-10-23T12:57:55.821Z,15.87
2022-10-23T13:00:24.726Z,13.87
2022-10-23T13:03:01.964Z,14.93
2022-10-23T13:05:29.675Z,14.37
2022-10-23T13:07:58.441Z,10.17
2022-10-23T13:10:25.654Z,11.80
2022-10-23T13:12:59.283Z,9.40
2022-10-23T13:15:26.973Z,13.97
2022-10-23T13:17:53.715Z,16.83
2022-10-23T13:20:29.362Z,12.17
2022-10-23T13:23:10.154Z,15.20
2022-10-23T13:25:38.673Z,13.93
2022-10-23T13:28:08.344Z,12.43
2022-10-23T13:30:43.716Z,12.87
2022-10-23T13:33:25.655Z,13.60
2022-10-23T13:35:59.105Z,14.30
2022-10-23T13:38:37.934Z,16.37
2022-10-23T13:41:06.514Z,20.03
2022-10-23T13:43:34.436Z,12.47
2022-10-23T13:46:01.907Z,17.07
2022-10-23T13:48:30.333Z,14.20
2022-10-23T13:51:31.040Z,24.17
2022-10-23T13:53:57.852Z,17.73
2022-10-23T13:56:26.778Z,14.43
2022-10-23T13:58:54.106Z,12.27
2022-10-23T14:01:22.737Z,14.47
2022-10-23T14:03:50.865Z,16.57
2022-10-23T14:06:18.097Z,17.53
2022-10-23T14:08:45.258Z,18.10
2022-10-23T14:11:16.218Z,22.73
2022-10-23T14:13:43.160Z,13.17
2022-10-23T14:16:12.502Z,14.13
2022-10-23T14:18:39.788Z,18.93
2022-10-23T14:21:08.321Z,16.03
2022-10-23T14:23:35.363Z,12.50
2022-10-23T14:26:13.281Z,20.90
2022-10-23T14:28:40.104Z,18.50
2022-10-23T14:31:11.941Z,18.33
2022-10-23T14:33:39.407Z,14.03
2022-10-23T14:36:06.704Z,21.63
2022-10-23T14:38:33.946Z,18.27
2022-10-23T14:41:00.963Z,25.20
2022-10-23T14:43:27.803Z,28.40
2022-10-23T14:45:54.627Z,22.63
2022-10-23T14:48:21.482Z,23.97
2022-10-23T14:50:49.371Z,18.60
2022-10-23T14:53:16.470Z,20.23
2022-10-23T14:55:43.398Z,19.77
2022-10-23T14:58:10.288Z,19.20
2022-10-23T15:00:37.135Z,14.37
2022-10-23T15:03:04.114Z,21.27
2022-10-23T15:05:30.991Z,25.40
2022-10-23T15:07:59.179Z,17.37
2022-10-23T15:10:26.562Z,21.50
2022-10-23T15:12:53.414Z,24.77
2022-10-23T15:15:20.754Z,21.67
2022-10-23T15:17:47.570Z,18.50
2022-10-23T15:20:14.395Z,20.17
2022-10-23T15:22:41.384Z,33.03
2022-10-23T15:25:08.822Z,18.93
2022-10-23T15:27:35.629Z,19.83
2022-10-23T15:30:02.714Z,21.07
2022-10-23T15:32:29.525Z,28.60
2022-10-23T15:34:58.630Z,22.67
2022-10-23T15:37:25.631Z,31.73
2022-10-23T15:39:52.890Z,27.20
2022-10-23T15:42:19.773Z,23.13
2022-10-23T15:44:46.799Z,30.57
2022-10-23T15:47:13.612Z,26.57
2022-10-23T15:49:40.419Z,33.23
2022-10-23T15:54:37.079Z,21.10
2022-10-23T16:08:50.596Z,38.10
2022-10-23T16:11:23.783Z,24.90
2022-10-23T16:13:51.156Z,18.93
2022-10-23T16:16:18.645Z,22.57
2022-10-23T16:18:46.610Z,27.17
2022-10-23T16:21:26.110Z,23.37
2022-10-23T16:23:54.904Z,25.37
2022-10-23T16:26:22.636Z,33.43
2022-10-23T16:28:53.470Z,33.83
2022-10-23T16:31:21.843Z,33.60
2022-10-23T16:33:49.064Z,20.60
2022-10-23T16:36:16.763Z,26.80
2022-10-23T16:38:43.651Z,29.47
2022-10-23T16:41:10.426Z,24.27
2022-10-23T16:43:37.414Z,26.30
2022-10-23T16:46:07.217Z,24.90
2022-10-23T16:48:35.105Z,24.67
2022-10-23T16:51:06.317Z,26.33
2022-10-23T16:53:33.611Z,29.70
2022-10-23T16:56:00.553Z,26.90
2022-10-23T16:58:27.708Z,29.53
2022-10-23T17:01:06.388Z,24.20
2022-10-23T17:03:42.124Z,18.63
2022-10-23T17:06:14.442Z,22.60
2022-10-23T17:08:42.101Z,22.03
2022-10-23T17:11:11.724Z,23.83
2022-10-23T17:13:41.588Z,20.40
2022-10-23T17:16:10.140Z,21.90
